Terminal Aerodrome Forecast
Issued by NWS

Home | Current Version | Previous Version | Text Only | Print | Product List | Glossary On
Versions: 1 2 3 4 5 6 7 8 9 10 11 12 13 14 15 16 17 18 19 20 21 22 23 24 25 26 27 28 29 30 31 32 33 34 35 36 37 38 39 40 41 42 43 44 45 46 47 48 49 50
000
FTUS41 KCTP 220533 CCA
TAFLNS
TAF COR
KLNS 220533Z 2206/2306 34007KT 6SM -SHRA BR OVC025
     FM220700 31005KT 5SM -SHRA BR VCTS BKN019 OVC030CB
     FM220800 32008KT 3SM -SHRA BR OVC012
     FM221600 33012G22KT 6SM -SHRA BR OVC030
     FM222100 33015KT P6SM VCSH BKN030 OVC050=

USA.gov is the U.S. government's official web portal to all federal, state and local government web resources and services.